createdAt,value
2022-12-11T00:00:05.921Z,78.23
2022-12-11T00:00:18.065Z,78.47
2022-12-11T00:00:30.025Z,77.84
2022-12-11T00:00:41.923Z,77.67
2022-12-11T00:00:53.861Z,77.01
2022-12-11T00:01:10.819Z,77.16
2022-12-11T00:01:22.736Z,78.13
2022-12-11T00:01:34.669Z,77.93
2022-12-11T00:01:46.634Z,78.36
2022-12-11T00:01:58.659Z,77.62
2022-12-11T00:02:10.609Z,77.96
2022-12-11T00:02:22.740Z,78.49
2022-12-11T00:02:35.241Z,78.38
2022-12-11T00:02:47.254Z,78.29
2022-12-11T00:02:59.261Z,78.92
2022-12-11T00:03:15.840Z,78.71
2022-12-11T00:03:28.320Z,79.03
2022-12-11T00:03:40.439Z,78.11
2022-12-11T00:03:52.776Z,78.29
2022-12-11T00:04:04.781Z,78.44
2022-12-11T00:04:16.743Z,77.51
2022-12-11T00:04:28.743Z,77.57
2022-12-11T00:04:40.730Z,77.60
2022-12-11T00:04:52.647Z,77.92
2022-12-11T00:05:05.129Z,78.05
2022-12-11T00:05:17.153Z,77.64
2022-12-11T00:05:29.025Z,77.35
2022-12-11T00:05:41.748Z,77.47
2022-12-11T00:05:53.719Z,76.42
2022-12-11T00:06:10.723Z,76.67
2022-12-11T00:06:23.639Z,76.33
2022-12-11T00:06:35.914Z,76.61
2022-12-11T00:06:50.380Z,76.54
2022-12-11T00:07:02.333Z,77.38
2022-12-11T00:07:14.358Z,77.80
2022-12-11T00:07:26.288Z,77.43
2022-12-11T00:07:38.410Z,77.90
2022-12-11T00:07:50.463Z,77.30
2022-12-11T00:08:02.506Z,77.37
2022-12-11T00:08:14.483Z,77.77
2022-12-11T00:08:26.487Z,77.75
2022-12-11T00:08:39.139Z,77.86
2022-12-11T00:08:53.904Z,77.86
2022-12-11T00:09:05.794Z,77.53
2022-12-11T00:09:18.509Z,77.63
2022-12-11T00:09:30.447Z,77.23
2022-12-11T00:09:42.401Z,76.81
2022-12-11T00:09:54.347Z,77.10
2022-12-11T00:10:07.214Z,77.13
2022-12-11T00:10:19.149Z,76.80
2022-12-11T00:10:34.648Z,77.15
2022-12-11T00:10:50.027Z,76.99
2022-12-11T00:11:01.975Z,77.02
2022-12-11T00:11:16.479Z,76.48
2022-12-11T00:11:28.609Z,76.13
2022-12-11T00:11:40.534Z,76.20
2022-12-11T00:11:52.508Z,76.48
2022-12-11T00:12:05.215Z,76.20
2022-12-11T00:12:17.108Z,75.72
2022-12-11T00:12:30.589Z,75.67
2022-12-11T00:12:42.513Z,76.49
2022-12-11T00:12:54.442Z,76.42
2022-12-11T00:13:06.485Z,76.35
2022-12-11T00:13:18.419Z,76.64
2022-12-11T00:13:30.357Z,76.91
2022-12-11T00:13:42.791Z,76.70
2022-12-11T00:13:54.980Z,76.41
2022-12-11T00:14:06.861Z,76.68
2022-12-11T00:14:18.841Z,77.19
2022-12-11T00:14:31.846Z,76.77
2022-12-11T00:14:44.159Z,77.02
2022-12-11T00:14:56.128Z,76.91
2022-12-11T00:15:08.965Z,76.48
2022-12-11T00:15:21.152Z,76.76
2022-12-11T00:15:33.246Z,77.06
2022-12-11T00:15:45.201Z,76.53
2022-12-11T00:16:00.221Z,76.98
2022-12-11T00:16:12.550Z,77.08
2022-12-11T00:16:27.171Z,76.59
2022-12-11T00:16:39.799Z,77.35
2022-12-11T00:16:51.836Z,77.47
2022-12-11T00:17:03.869Z,76.92
2022-12-11T00:17:15.841Z,76.23
2022-12-11T00:17:27.740Z,76.32
2022-12-11T00:17:39.686Z,76.43
2022-12-11T00:17:51.687Z,75.72
2022-12-11T00:18:03.631Z,75.72
2022-12-11T00:18:15.587Z,75.70
2022-12-11T00:18:27.597Z,75.24
2022-12-11T00:18:39.633Z,75.53
2022-12-11T00:18:51.588Z,75.79
2022-12-11T00:19:03.628Z,75.49
2022-12-11T00:19:16.164Z,75.60
2022-12-11T00:19:28.128Z,75.66
2022-12-11T00:19:40.080Z,75.28
2022-12-11T00:19:52.042Z,74.95
2022-12-11T00:20:05.053Z,75.04
2022-12-11T00:20:17.185Z,75.13
2022-12-11T00:20:29.122Z,74.96
2022-12-11T00:20:41.297Z,75.33
2022-12-11T00:20:53.240Z,75.43
2022-12-11T00:21:08.782Z,75.04
2022-12-11T00:21:20.696Z,75.24
2022-12-11T00:21:33.032Z,74.78
2022-12-11T00:21:45.019Z,75.69
2022-12-11T00:21:57.418Z,75.10
2022-12-11T00:22:09.336Z,75.10
2022-12-11T00:22:21.322Z,75.37
2022-12-11T00:22:33.568Z,75.81
2022-12-11T00:22:45.552Z,75.37
2022-12-11T00:22:57.496Z,75.29
2022-12-11T00:23:10.796Z,75.93
2022-12-11T00:23:22.783Z,75.95
2022-12-11T00:23:36.466Z,75.60
2022-12-11T00:23:48.390Z,75.63
2022-12-11T00:24:00.683Z,75.49
2022-12-11T00:24:12.829Z,75.62
2022-12-11T00:24:24.969Z,75.62
2022-12-11T00:24:36.897Z,75.44
2022-12-11T00:24:48.826Z,76.00
2022-12-11T00:25:00.749Z,75.98
2022-12-11T00:25:12.940Z,76.13
2022-12-11T00:25:24.987Z,75.52
2022-12-11T00:25:44.116Z,75.70
2022-12-11T00:25:56.781Z,75.49
2022-12-11T00:26:11.965Z,75.79
2022-12-11T00:26:24.003Z,75.04
2022-12-11T00:26:35.939Z,75.38
2022-12-11T00:26:47.882Z,75.55
2022-12-11T00:26:59.882Z,75.70
2022-12-11T00:27:11.813Z,75.40
2022-12-11T00:27:24.157Z,75.37
2022-12-11T00:27:36.235Z,75.54
2022-12-11T00:27:48.269Z,76.17
2022-12-11T00:28:00.173Z,75.48
2022-12-11T00:28:18.811Z,75.43
2022-12-11T00:28:30.752Z,75.26
2022-12-11T00:28:43.752Z,75.16
2022-12-11T00:28:57.040Z,75.50
2022-12-11T00:29:14.273Z,75.46
2022-12-11T00:29:26.203Z,75.72
2022-12-11T00:29:38.099Z,75.04
2022-12-11T00:29:50.082Z,75.74
2022-12-11T00:30:02.058Z,75.82
2022-12-11T00:30:14.496Z,75.40
2022-12-11T00:30:26.394Z,75.69
2022-12-11T00:30:40.623Z,74.96
2022-12-11T00:30:52.645Z,75.46
2022-12-11T00:31:06.593Z,74.79
2022-12-11T00:31:19.301Z,74.98
2022-12-11T00:31:31.545Z,74.87
2022-12-11T00:31:44.528Z,75.63
2022-12-11T00:31:56.608Z,75.54
2022-12-11T00:32:08.828Z,75.42
2022-12-11T00:32:20.932Z,76.08
2022-12-11T00:32:37.436Z,75.58
2022-12-11T00:32:51.784Z,76.81
2022-12-11T00:33:03.702Z,76.76
2022-12-11T00:33:16.507Z,76.92
2022-12-11T00:33:28.390Z,77.04
2022-12-11T00:33:40.435Z,76.51
2022-12-11T00:33:52.817Z,76.16
2022-12-11T00:34:04.754Z,76.76
2022-12-11T00:34:17.203Z,75.94
2022-12-11T00:34:29.169Z,75.73
2022-12-11T00:34:41.125Z,75.66
2022-12-11T00:34:53.444Z,75.91
2022-12-11T00:35:05.659Z,76.01
2022-12-11T00:35:17.680Z,75.73
2022-12-11T00:35:29.866Z,76.44
2022-12-11T00:35:44.734Z,75.83
2022-12-11T00:35:56.739Z,76.23
2022-12-11T00:36:24.389Z,75.51
2022-12-11T00:36:36.307Z,75.54
2022-12-11T00:36:48.235Z,75.74
2022-12-11T00:37:00.224Z,75.18
2022-12-11T00:37:12.292Z,75.52
2022-12-11T00:37:24.527Z,75.55
2022-12-11T00:37:36.652Z,75.97
2022-12-11T00:37:48.642Z,75.87
2022-12-11T00:38:00.551Z,75.81
2022-12-11T00:38:20.961Z,75.19
2022-12-11T00:38:32.847Z,75.30
2022-12-11T00:38:44.803Z,74.95
2022-12-11T00:38:56.922Z,75.62
2022-12-11T00:39:08.878Z,75.35
2022-12-11T00:39:20.801Z,75.52
2022-12-11T00:39:32.753Z,75.19
2022-12-11T00:39:45.473Z,75.08
2022-12-11T00:39:57.431Z,75.03
2022-12-11T00:40:10.079Z,75.01
2022-12-11T00:40:22.027Z,74.72
2022-12-11T00:40:37.291Z,74.64
2022-12-11T00:40:49.193Z,75.05
2022-12-11T00:41:01.149Z,75.07
2022-12-11T00:41:13.067Z,74.92
2022-12-11T00:41:25.372Z,75.51
2022-12-11T00:41:37.280Z,75.75
2022-12-11T00:41:49.215Z,74.92
2022-12-11T00:42:01.193Z,75.81
2022-12-11T00:42:13.190Z,75.71
2022-12-11T00:42:25.131Z,75.29
2022-12-11T00:42:37.064Z,74.47
2022-12-11T00:42:49.035Z,75.03
2022-12-11T00:43:01.292Z,74.58
2022-12-11T00:43:14.402Z,74.58
2022-12-11T00:43:26.304Z,74.81
2022-12-11T00:43:38.679Z,74.56
2022-12-11T00:43:50.838Z,75.37
2022-12-11T00:44:02.886Z,74.86
2022-12-11T00:44:14.886Z,75.16
2022-12-11T00:44:26.790Z,74.58
2022-12-11T00:44:38.679Z,74.38
2022-12-11T00:44:50.857Z,74.40
2022-12-11T00:45:03.533Z,75.17
2022-12-11T00:45:15.724Z,75.02
2022-12-11T00:45:27.693Z,74.95
2022-12-11T00:45:43.333Z,74.50
2022-12-11T00:45:55.288Z,74.49
2022-12-11T00:46:07.414Z,74.46
2022-12-11T00:46:19.453Z,73.94
2022-12-11T00:46:31.507Z,74.13
2022-12-11T00:46:43.467Z,73.93
2022-12-11T00:46:55.445Z,74.54
2022-12-11T00:47:08.432Z,74.45
2022-12-11T00:47:20.323Z,74.61
2022-12-11T00:47:32.388Z,74.57
2022-12-11T00:47:44.333Z,73.58
2022-12-11T00:47:56.227Z,74.24
2022-12-11T00:48:08.957Z,74.02
2022-12-11T00:48:21.066Z,74.33
2022-12-11T00:48:33.474Z,73.84
2022-12-11T00:48:46.280Z,73.95
2022-12-11T00:48:58.383Z,74.37
2022-12-11T00:49:10.357Z,74.40
2022-12-11T00:49:22.251Z,73.22
2022-12-11T00:49:34.226Z,74.19
2022-12-11T00:49:49.803Z,73.94
2022-12-11T00:50:02.541Z,74.62
2022-12-11T00:50:14.604Z,74.41
2022-12-11T00:50:26.505Z,74.12
2022-12-11T00:50:39.201Z,74.50
2022-12-11T00:50:51.079Z,75.20
2022-12-11T00:51:03.115Z,74.55
2022-12-11T00:51:15.424Z,74.44
2022-12-11T00:51:27.433Z,75.60
2022-12-11T00:51:39.357Z,75.41
2022-12-11T00:51:51.346Z,75.26
2022-12-11T00:52:03.412Z,75.82
2022-12-11T00:52:17.623Z,75.36
2022-12-11T00:52:29.901Z,75.58
2022-12-11T00:52:41.842Z,75.41
2022-12-11T00:52:53.774Z,74.96
2022-12-11T00:53:06.806Z,75.20
2022-12-11T00:53:18.784Z,75.57
2022-12-11T00:53:30.712Z,75.55
2022-12-11T00:53:42.800Z,75.54
2022-12-11T00:53:54.782Z,75.21
2022-12-11T00:54:06.714Z,75.57
2022-12-11T00:54:18.798Z,75.18
2022-12-11T00:54:30.744Z,75.08
2022-12-11T00:54:42.646Z,75.18
2022-12-11T00:54:54.590Z,75.41
2022-12-11T00:55:06.912Z,75.49
2022-12-11T00:55:18.838Z,75.60
2022-12-11T00:55:30.776Z,75.29
2022-12-11T00:55:43.462Z,75.21
2022-12-11T00:55:55.373Z,75.25
2022-12-11T00:56:19.265Z,75.67
2022-12-11T00:56:31.188Z,75.57
2022-12-11T00:56:43.219Z,75.42
2022-12-11T00:56:55.886Z,75.12
2022-12-11T00:57:07.776Z,74.59
2022-12-11T00:57:29.871Z,75.33
2022-12-11T00:57:41.768Z,74.79
2022-12-11T00:57:54.017Z,75.53
2022-12-11T00:58:06.410Z,74.83
2022-12-11T00:58:18.479Z,74.85
2022-12-11T00:58:30.406Z,75.28
2022-12-11T00:58:42.512Z,75.58
2022-12-11T00:58:54.526Z,74.67
2022-12-11T00:59:06.552Z,75.29
2022-12-11T00:59:18.489Z,74.95
2022-12-11T00:59:30.445Z,75.12
2022-12-11T00:59:42.342Z,74.70
2022-12-11T00:59:54.231Z,75.49
2022-12-11T01:00:07.071Z,74.95
2022-12-11T01:00:19.384Z,75.19
2022-12-11T01:00:31.448Z,75.27
2022-12-11T01:00:44.315Z,75.04
2022-12-11T01:01:05.724Z,75.42
2022-12-11T01:01:21.099Z,75.57
2022-12-11T01:01:33.379Z,75.37
2022-12-11T01:01:45.383Z,75.26
2022-12-11T01:01:57.326Z,75.12
2022-12-11T01:02:09.254Z,75.30
2022-12-11T01:02:21.470Z,74.96
2022-12-11T01:02:34.314Z,74.99
2022-12-11T01:02:46.421Z,75.13
2022-12-11T01:02:58.429Z,74.86
2022-12-11T01:03:13.177Z,75.32
2022-12-11T01:03:25.146Z,75.05
2022-12-11T01:03:37.723Z,74.83
2022-12-11T01:03:50.073Z,75.07
2022-12-11T01:04:02.013Z,75.40
2022-12-11T01:04:13.933Z,74.82
2022-12-11T01:04:25.852Z,75.09
2022-12-11T01:04:37.792Z,74.92
2022-12-11T01:04:49.818Z,75.16
2022-12-11T01:05:01.747Z,75.42
2022-12-11T01:05:13.735Z,75.42
2022-12-11T01:05:25.730Z,74.92
2022-12-11T01:05:37.735Z,75.45
2022-12-11T01:05:54.479Z,75.24
2022-12-11T01:06:07.378Z,75.65
2022-12-11T01:06:23.023Z,75.18
2022-12-11T01:06:35.317Z,75.79
2022-12-11T01:06:47.217Z,75.18
2022-12-11T01:06:59.128Z,76.04
2022-12-11T01:07:11.070Z,75.88
2022-12-11T01:07:23.072Z,75.99
2022-12-11T01:07:34.983Z,75.78
2022-12-11T01:07:46.988Z,75.47
2022-12-11T01:07:59.093Z,76.16
2022-12-11T01:08:11.026Z,75.60
2022-12-11T01:08:23.074Z,75.30
2022-12-11T01:08:38.505Z,75.49
2022-12-11T01:09:13.987Z,75.28
2022-12-11T01:10:04.170Z,76.17
2022-12-11T01:10:25.509Z,75.52
2022-12-11T01:10:37.590Z,75.65
2022-12-11T01:10:49.544Z,75.75
2022-12-11T01:11:06.683Z,76.08
2022-12-11T01:11:18.631Z,75.85
2022-12-11T01:11:30.548Z,76.16
2022-12-11T01:11:43.335Z,76.63
2022-12-11T01:11:55.234Z,76.57
2022-12-11T01:12:07.209Z,76.23
2022-12-11T01:12:19.155Z,76.39
2022-12-11T01:12:31.088Z,76.24
2022-12-11T01:12:42.966Z,76.83
2022-12-11T01:13:13.825Z,76.21
2022-12-11T01:13:25.738Z,76.48
2022-12-11T01:13:39.095Z,76.60
2022-12-11T01:13:51.027Z,76.91
2022-12-11T01:14:03.479Z,77.03
2022-12-11T01:14:15.444Z,76.40
2022-12-11T01:14:27.921Z,76.39
2022-12-11T01:14:39.860Z,76.73
2022-12-11T01:14:51.846Z,77.41
2022-12-11T01:15:04.028Z,76.86
2022-12-11T01:15:16.070Z,77.19
2022-12-11T01:15:31.858Z,77.25
2022-12-11T01:15:45.336Z,77.67
2022-12-11T01:15:57.338Z,76.72
2022-12-11T01:16:12.149Z,77.17
2022-12-11T01:16:24.158Z,76.85
2022-12-11T01:16:36.523Z,76.87
2022-12-11T01:16:48.480Z,77.19
2022-12-11T01:17:00.478Z,76.78
2022-12-11T01:17:12.437Z,76.94
2022-12-11T01:17:24.448Z,76.93
2022-12-11T01:17:36.335Z,77.43
2022-12-11T01:17:48.920Z,77.00
2022-12-11T01:18:00.888Z,76.63
2022-12-11T01:18:15.322Z,76.58
2022-12-11T01:18:27.292Z,76.87
2022-12-11T01:18:39.515Z,76.56
2022-12-11T01:18:51.447Z,77.16
2022-12-11T01:19:03.881Z,76.63
2022-12-11T01:19:15.983Z,77.07
2022-12-11T01:19:28.518Z,76.90
2022-12-11T01:19:40.501Z,76.55
2022-12-11T01:19:55.572Z,76.85
2022-12-11T01:20:08.094Z,76.82
2022-12-11T01:20:21.512Z,76.73
2022-12-11T01:20:33.505Z,77.07
2022-12-11T01:20:45.463Z,76.85
2022-12-11T01:20:57.362Z,76.89
2022-12-11T01:21:12.405Z,77.20
2022-12-11T01:21:24.687Z,77.23
2022-12-11T01:21:36.609Z,77.30
2022-12-11T01:21:48.540Z,77.11
2022-12-11T01:22:00.484Z,77.55
2022-12-11T01:22:12.378Z,78.06
2022-12-11T01:22:24.251Z,77.37
2022-12-11T01:22:36.123Z,78.30
2022-12-11T01:22:48.308Z,78.00
2022-12-11T01:23:00.984Z,77.83
2022-12-11T01:23:13.794Z,77.84
2022-12-11T01:23:25.719Z,77.75
2022-12-11T01:23:38.328Z,78.33
2022-12-11T01:23:51.416Z,79.01
2022-12-11T01:24:03.541Z,78.48
2022-12-11T01:24:15.490Z,79.45
2022-12-11T01:24:27.386Z,79.50
2022-12-11T01:24:39.322Z,79.45
2022-12-11T01:24:51.243Z,79.94
2022-12-11T01:25:04.067Z,79.51
2022-12-11T01:25:16.954Z,79.54
2022-12-11T01:25:29.190Z,79.61
2022-12-11T01:25:42.041Z,79.94
2022-12-11T01:25:53.983Z,79.07
2022-12-11T01:26:11.479Z,79.67
2022-12-11T01:26:23.505Z,78.88
2022-12-11T01:26:35.974Z,78.76
2022-12-11T01:26:47.903Z,78.95
2022-12-11T01:26:59.836Z,79.08
2022-12-11T01:27:11.839Z,78.64
2022-12-11T01:27:23.754Z,78.82
2022-12-11T01:27:36.234Z,78.95
2022-12-11T01:27:51.616Z,78.88
2022-12-11T01:28:04.390Z,78.38
2022-12-11T01:28:16.291Z,78.94
2022-12-11T01:28:28.171Z,78.85
2022-12-11T01:28:42.762Z,78.97
2022-12-11T01:28:54.694Z,78.82
2022-12-11T01:29:06.580Z,78.80
2022-12-11T01:29:18.578Z,78.35
2022-12-11T01:29:30.776Z,78.27
2022-12-11T01:29:42.662Z,78.08
2022-12-11T01:29:54.574Z,78.79
2022-12-11T01:30:08.129Z,78.90
2022-12-11T01:30:21.834Z,79.25
2022-12-11T01:30:34.286Z,78.59
2022-12-11T01:30:46.295Z,79.05
2022-12-11T01:30:58.377Z,79.08
2022-12-11T01:31:13.081Z,79.52
2022-12-11T01:31:25.106Z,79.30
2022-12-11T01:31:38.309Z,79.34
2022-12-11T01:31:50.189Z,79.09
2022-12-11T01:32:02.105Z,79.67
2022-12-11T01:32:14.011Z,80.21
2022-12-11T01:32:27.598Z,80.26
2022-12-11T01:32:39.561Z,80.13
2022-12-11T01:32:52.165Z,80.42
2022-12-11T01:33:04.322Z,79.87
2022-12-11T01:33:16.244Z,79.80
2022-12-11T01:33:28.990Z,79.66
2022-12-11T01:33:41.401Z,79.70
2022-12-11T01:33:56.557Z,79.36
2022-12-11T01:34:08.465Z,79.55
2022-12-11T01:34:20.648Z,79.61
2022-12-11T01:34:33.344Z,79.02
2022-12-11T01:34:45.237Z,78.95
2022-12-11T01:34:57.252Z,79.51
2022-12-11T01:35:10.919Z,79.41
2022-12-11T01:35:23.329Z,78.48
2022-12-11T01:35:35.299Z,77.88
2022-12-11T01:35:47.181Z,78.23
2022-12-11T01:35:59.422Z,78.17
2022-12-11T01:36:15.154Z,78.18
2022-12-11T01:36:27.107Z,78.06
2022-12-11T01:36:39.026Z,77.75
2022-12-11T01:36:52.229Z,77.91
2022-12-11T01:37:04.145Z,78.19
2022-12-11T01:37:16.106Z,78.18
2022-12-11T01:37:28.004Z,78.77
2022-12-11T01:37:40.221Z,78.57
2022-12-11T01:37:52.146Z,78.08
2022-12-11T01:38:04.067Z,78.27
2022-12-11T01:38:15.944Z,77.99
2022-12-11T01:38:27.851Z,77.75
2022-12-11T01:38:40.033Z,78.22
2022-12-11T01:38:54.262Z,78.48
2022-12-11T01:39:06.219Z,78.02
2022-12-11T01:39:18.107Z,78.25
2022-12-11T01:39:30.044Z,77.96
2022-12-11T01:39:41.959Z,78.75
2022-12-11T01:39:53.846Z,78.31
2022-12-11T01:40:07.866Z,78.34
2022-12-11T01:40:21.146Z,78.77
2022-12-11T01:40:33.038Z,77.78
2022-12-11T01:40:49.549Z,78.47
2022-12-11T01:41:01.509Z,78.46
2022-12-11T01:41:14.141Z,77.38
2022-12-11T01:41:26.147Z,77.84
2022-12-11T01:41:38.165Z,77.73
2022-12-11T01:41:50.337Z,78.00
2022-12-11T01:42:02.349Z,78.21
2022-12-11T01:42:23.099Z,77.57
2022-12-11T01:42:35.694Z,77.66
2022-12-11T01:42:47.857Z,78.08
2022-12-11T01:42:59.781Z,78.00
2022-12-11T01:43:11.687Z,78.70
2022-12-11T01:43:23.655Z,78.81
2022-12-11T01:43:55.341Z,78.03
2022-12-11T01:44:27.248Z,78.03
2022-12-11T01:44:39.177Z,78.44
2022-12-11T01:44:51.093Z,78.42
2022-12-11T01:45:21.511Z,78.00
2022-12-11T01:45:44.587Z,78.55
2022-12-11T01:45:56.610Z,78.29
2022-12-11T01:46:08.579Z,78.00
2022-12-11T01:46:20.544Z,78.01
2022-12-11T01:46:35.053Z,78.46
2022-12-11T01:46:46.951Z,78.41
2022-12-11T01:46:58.849Z,78.75
2022-12-11T01:47:11.291Z,78.45
2022-12-11T01:47:23.228Z,78.36
2022-12-11T01:47:35.191Z,78.48
2022-12-11T01:47:48.599Z,78.29
2022-12-11T01:48:10.679Z,77.92
2022-12-11T01:48:25.569Z,78.38
2022-12-11T01:48:42.174Z,78.43
2022-12-11T01:48:55.189Z,78.38
2022-12-11T01:49:14.049Z,77.93
2022-12-11T01:49:27.430Z,78.28
2022-12-11T01:49:40.998Z,78.37
2022-12-11T01:49:52.901Z,77.81
2022-12-11T01:50:05.311Z,78.67
2022-12-11T01:50:18.610Z,78.50
2022-12-11T01:50:34.092Z,78.24
2022-12-11T01:50:50.716Z,78.47
2022-12-11T01:51:05.172Z,78.82
2022-12-11T01:51:17.542Z,78.84
2022-12-11T01:51:33.277Z,78.72
2022-12-11T01:51:53.234Z,78.55
2022-12-11T01:52:15.272Z,78.64
2022-12-11T01:52:27.289Z,78.03
2022-12-11T01:52:40.026Z,77.72
2022-12-11T01:52:52.373Z,78.30
2022-12-11T01:53:08.101Z,78.01
2022-12-11T01:53:25.189Z,77.44
2022-12-11T01:53:41.647Z,77.38
2022-12-11T01:54:01.858Z,77.57
2022-12-11T01:54:17.277Z,77.11
2022-12-11T01:54:30.369Z,77.96
2022-12-11T01:54:43.490Z,78.75
2022-12-11T01:54:55.563Z,78.09
2022-12-11T01:55:09.547Z,78.74
2022-12-11T01:55:22.107Z,78.39
2022-12-11T01:55:34.528Z,79.26
2022-12-11T01:55:48.344Z,78.83
2022-12-11T01:56:01.122Z,78.58
2022-12-11T01:56:13.136Z,79.09
2022-12-11T01:56:25.120Z,78.58
2022-12-11T01:56:38.000Z,78.63
2022-12-11T01:56:53.135Z,78.86
2022-12-11T01:57:08.459Z,78.76
2022-12-11T01:57:20.396Z,78.45
2022-12-11T01:57:32.400Z,78.48
2022-12-11T01:57:47.315Z,78.06
2022-12-11T01:57:59.321Z,78.95
2022-12-11T01:58:13.070Z,78.69
2022-12-11T01:58:32.118Z,78.93
2022-12-11T01:58:51.463Z,77.78
2022-12-11T01:59:07.418Z,78.43
2022-12-11T01:59:23.885Z,78.20
2022-12-11T01:59:39.879Z,77.58
2022-12-11T01:59:51.919Z,77.98
2022-12-11T02:00:05.111Z,77.66
2022-12-11T02:00:17.432Z,78.25
2022-12-11T02:00:29.396Z,77.36
2022-12-11T02:00:41.328Z,77.76
2022-12-11T02:00:54.580Z,77.18
2022-12-11T02:01:06.571Z,77.44
2022-12-11T02:01:36.826Z,77.28
2022-12-11T02:02:04.644Z,76.89
2022-12-11T02:02:22.385Z,77.44
2022-12-11T02:02:34.332Z,77.20
2022-12-11T02:02:46.386Z,77.81
2022-12-11T02:02:58.384Z,77.15
2022-12-11T02:03:10.307Z,77.43
2022-12-11T02:03:22.801Z,77.28
2022-12-11T02:03:34.743Z,77.63
2022-12-11T02:03:46.739Z,77.27
2022-12-11T02:03:59.565Z,76.74
2022-12-11T02:04:12.221Z,76.73
2022-12-11T02:04:24.559Z,77.44
2022-12-11T02:04:38.952Z,76.98
2022-12-11T02:04:50.924Z,76.67
2022-12-11T02:05:05.613Z,77.16
2022-12-11T02:05:17.634Z,76.67
2022-12-11T02:05:29.669Z,76.95
2022-12-11T02:05:41.894Z,76.49
2022-12-11T02:05:53.839Z,76.98
2022-12-11T02:06:05.982Z,77.16
2022-12-11T02:06:51.929Z,76.77
2022-12-11T02:07:04.143Z,76.66
2022-12-11T02:07:16.215Z,77.16
2022-12-11T02:07:31.614Z,77.21
2022-12-11T02:07:48.219Z,77.32
2022-12-11T02:08:02.967Z,76.64
2022-12-11T02:08:15.833Z,76.87
2022-12-11T02:08:28.254Z,76.59
2022-12-11T02:08:40.195Z,76.01
2022-12-11T02:08:52.062Z,76.27
2022-12-11T02:09:07.662Z,76.40
2022-12-11T02:09:25.210Z,76.29
2022-12-11T02:09:40.053Z,76.83
2022-12-11T02:09:52.064Z,76.31
2022-12-11T02:10:04.867Z,76.57
2022-12-11T02:10:17.433Z,77.23
2022-12-11T02:10:48.233Z,76.83
2022-12-11T02:11:10.663Z,77.23
2022-12-11T02:11:28.359Z,76.75
2022-12-11T02:11:58.840Z,76.84
2022-12-11T02:12:26.382Z,77.10
2022-12-11T02:12:57.519Z,76.69
2022-12-11T02:13:17.840Z,76.54
2022-12-11T02:13:47.961Z,76.75
2022-12-11T02:14:12.881Z,76.50
2022-12-11T02:14:37.510Z,76.30
2022-12-11T02:15:14.112Z,76.71
2022-12-11T02:15:35.706Z,76.40
2022-12-11T02:15:56.791Z,76.54
2022-12-11T02:16:53.496Z,75.95
2022-12-11T02:17:14.288Z,76.34
2022-12-11T02:17:35.736Z,76.04
2022-12-11T02:18:02.791Z,76.41
2022-12-11T02:18:14.718Z,76.35
2022-12-11T02:18:42.163Z,76.19
2022-12-11T02:19:02.943Z,76.73
2022-12-11T02:19:38.893Z,76.30
2022-12-11T02:20:15.386Z,75.96
2022-12-11T02:21:11.818Z,76.05
2022-12-11T02:21:27.997Z,76.40
2022-12-11T02:21:50.698Z,75.96
2022-12-11T02:22:08.835Z,75.78
2022-12-11T02:23:05.106Z,76.14
2022-12-11T02:23:26.311Z,76.58
2022-12-11T02:24:00.264Z,76.77
2022-12-11T02:24:45.226Z,76.55
2022-12-11T02:24:59.974Z,76.82
2022-12-11T02:25:25.615Z,76.93
2022-12-11T02:26:10.638Z,76.52
2022-12-11T02:26:45.595Z,76.71
2022-12-11T02:27:15.837Z,77.04
2022-12-11T02:27:44.802Z,76.25
2022-12-11T02:28:14.720Z,76.93
2022-12-11T02:28:43.214Z,76.87
2022-12-11T02:29:01.105Z,76.83
2022-12-11T02:29:20.681Z,77.16
2022-12-11T02:29:38.977Z,76.77
2022-12-11T02:30:05.994Z,76.52
2022-12-11T02:30:18.088Z,77.23
2022-12-11T02:30:31.312Z,77.32
2022-12-11T02:30:50.167Z,76.71
2022-12-11T02:32:00.381Z,77.22
2022-12-11T02:32:23.124Z,77.48
2022-12-11T02:32:55.305Z,77.12
2022-12-11T02:33:09.552Z,77.55
2022-12-11T02:33:26.601Z,77.14
2022-12-11T02:33:47.081Z,77.03
2022-12-11T02:34:08.822Z,77.53
2022-12-11T02:34:29.126Z,77.26
2022-12-11T02:34:49.310Z,77.35
2022-12-11T02:35:12.687Z,77.10
2022-12-11T02:35:24.783Z,76.93
2022-12-11T02:35:42.471Z,77.55
2022-12-11T02:35:54.906Z,77.62
2022-12-11T02:36:09.770Z,76.96
2022-12-11T02:36:25.361Z,76.92
2022-12-11T02:36:41.670Z,76.66
2022-12-11T02:37:00.520Z,77.14
2022-12-11T02:37:21.382Z,77.22
2022-12-11T02:37:37.346Z,77.58
2022-12-11T02:37:57.959Z,77.68
2022-12-11T02:38:19.662Z,76.91
2022-12-11T02:38:36.951Z,77.30
2022-12-11T02:38:53.135Z,77.38
2022-12-11T02:39:07.453Z,77.32
2022-12-11T02:39:22.397Z,78.14
2022-12-11T02:39:38.708Z,77.89
2022-12-11T02:39:53.977Z,78.04
2022-12-11T02:40:10.941Z,78.48
2022-12-11T02:40:26.635Z,78.74
2022-12-11T02:40:41.216Z,77.99
2022-12-11T02:40:56.270Z,78.51
2022-12-11T02:41:10.532Z,79.15
2022-12-11T02:41:24.120Z,78.48
2022-12-11T02:41:36.755Z,78.28
2022-12-11T02:41:50.764Z,78.32
2022-12-11T02:42:04.740Z,78.48
2022-12-11T02:42:19.560Z,78.20
2022-12-11T02:42:33.165Z,78.77
2022-12-11T02:42:48.122Z,78.50
2022-12-11T02:43:04.656Z,78.74
2022-12-11T02:43:18.136Z,78.02
2022-12-11T02:43:32.268Z,78.77
2022-12-11T02:43:45.477Z,78.61
2022-12-11T02:43:59.114Z,78.85
2022-12-11T02:44:14.534Z,78.71
2022-12-11T02:44:30.372Z,78.29
2022-12-11T02:44:44.492Z,78.17
2022-12-11T02:44:59.080Z,79.02
2022-12-11T02:45:13.312Z,78.81
2022-12-11T02:45:27.225Z,78.60
2022-12-11T02:45:41.481Z,79.20
2022-12-11T02:45:54.187Z,78.64
2022-12-11T02:46:07.956Z,79.16
2022-12-11T02:46:21.722Z,79.31
2022-12-11T02:46:35.547Z,78.77
2022-12-11T02:46:47.612Z,78.87
2022-12-11T02:47:00.587Z,78.60
2022-12-11T02:47:16.691Z,79.08
2022-12-11T02:47:32.031Z,78.73
2022-12-11T02:47:47.674Z,78.98
2022-12-11T02:48:02.858Z,79.13
2022-12-11T02:48:17.230Z,79.51
2022-12-11T02:48:30.242Z,79.76
2022-12-11T02:48:44.118Z,78.95
2022-12-11T02:48:57.759Z,79.73
2022-12-11T02:49:11.690Z,79.37
2022-12-11T02:49:24.435Z,79.15
2022-12-11T02:49:36.626Z,79.18
2022-12-11T02:49:50.528Z,79.29
2022-12-11T02:50:07.582Z,79.89
2022-12-11T02:50:23.424Z,80.18
2022-12-11T02:50:37.939Z,79.64
2022-12-11T02:50:55.952Z,80.02
2022-12-11T02:51:10.303Z,79.87
2022-12-11T02:51:26.919Z,80.54
2022-12-11T02:51:41.907Z,80.12
2022-12-11T02:51:56.576Z,80.48
2022-12-11T02:52:12.393Z,79.73
2022-12-11T02:52:27.546Z,79.56
2022-12-11T02:52:41.897Z,79.95
2022-12-11T02:52:56.271Z,80.05
2022-12-11T02:53:12.254Z,79.71
2022-12-11T02:53:28.576Z,80.41
2022-12-11T02:53:44.035Z,80.02
2022-12-11T02:53:58.999Z,80.39
2022-12-11T02:54:16.910Z,80.81
2022-12-11T02:54:33.389Z,80.16
2022-12-11T02:54:47.496Z,81.10
2022-12-11T02:55:01.705Z,80.57
2022-12-11T02:55:15.847Z,80.80
2022-12-11T02:55:29.844Z,80.79
2022-12-11T02:55:45.573Z,80.84
2022-12-11T02:56:06.910Z,80.58
2022-12-11T02:56:30.808Z,81.48
2022-12-11T02:56:57.143Z,80.67
2022-12-11T02:57:14.547Z,81.02
2022-12-11T02:57:35.905Z,80.91
2022-12-11T02:57:52.769Z,81.01
2022-12-11T02:58:28.236Z,80.60
2022-12-11T02:58:49.929Z,80.81
2022-12-11T02:59:09.114Z,80.31
2022-12-11T02:59:26.782Z,80.85
2022-12-11T02:59:43.718Z,81.16
2022-12-11T02:59:55.778Z,80.59
2022-12-11T03:00:08.892Z,80.96
2022-12-11T03:00:21.858Z,80.33
2022-12-11T03:00:34.453Z,80.73
2022-12-11T03:00:46.669Z,81.25
2022-12-11T03:00:58.748Z,80.73
2022-12-11T03:01:10.764Z,81.20
2022-12-11T03:01:22.789Z,80.71
2022-12-11T03:01:34.905Z,80.84
2022-12-11T03:01:47.841Z,81.57
2022-12-11T03:02:00.487Z,81.40
2022-12-11T03:02:15.028Z,81.07
2022-12-11T03:02:27.329Z,80.76
2022-12-11T03:02:40.567Z,81.35
2022-12-11T03:02:52.618Z,81.60
2022-12-11T03:03:05.155Z,81.49
2022-12-11T03:03:17.359Z,81.65
2022-12-11T03:03:30.696Z,81.36
2022-12-11T03:03:42.719Z,81.15
2022-12-11T03:03:55.777Z,80.83
2022-12-11T03:04:07.889Z,81.67
2022-12-11T03:04:24.710Z,81.24
2022-12-11T03:04:36.940Z,80.76
2022-12-11T03:04:49.855Z,80.77
2022-12-11T03:05:01.811Z,80.36
2022-12-11T03:05:15.310Z,80.72
2022-12-11T03:05:27.936Z,80.38
2022-12-11T03:05:41.961Z,80.29
2022-12-11T03:05:54.146Z,80.84
2022-12-11T03:06:06.369Z,80.43
2022-12-11T03:06:21.884Z,80.79